createdAt,value
2022-08-25T00:01:46.345Z,26.20
2022-08-25T00:04:14.618Z,26.10
2022-08-25T00:06:42.615Z,26.10
2022-08-25T00:09:10.345Z,26.10
2022-08-25T00:11:38.829Z,26.00
2022-08-25T00:14:07.605Z,25.90
2022-08-25T00:16:34.898Z,25.90
2022-08-25T00:19:04.384Z,25.90
2022-08-25T00:21:31.906Z,25.90
2022-08-25T00:23:59.807Z,25.90
2022-08-25T00:26:27.682Z,25.90
2022-08-25T00:28:57.490Z,25.80
2022-08-25T00:31:38.500Z,25.80
2022-08-25T00:34:11.346Z,25.80
2022-08-25T00:36:38.646Z,25.80
2022-08-25T00:39:06.288Z,25.70
2022-08-25T00:41:35.109Z,25.70
2022-08-25T00:44:04.418Z,25.70
2022-08-25T00:46:34.234Z,25.60
2022-08-25T00:49:02.978Z,25.60
2022-08-25T00:51:38.844Z,25.60
2022-08-25T00:54:05.922Z,25.60
2022-08-25T00:56:32.782Z,25.60
2022-08-25T00:58:59.797Z,25.50
2022-08-25T01:01:26.852Z,25.50
2022-08-25T01:03:53.686Z,25.40
2022-08-25T01:06:20.494Z,25.40
2022-08-25T01:08:47.466Z,25.40
2022-08-25T01:11:14.190Z,25.40
2022-08-25T01:13:45.370Z,25.30
2022-08-25T01:16:13.438Z,25.30
2022-08-25T01:18:54.110Z,25.30
2022-08-25T01:21:21.874Z,25.30
2022-08-25T01:23:49.759Z,25.20
2022-08-25T01:26:21.126Z,25.20
2022-08-25T01:29:16.472Z,25.10
2022-08-25T01:31:43.196Z,25.10
2022-08-25T01:34:12.587Z,25.00
2022-08-25T01:36:39.787Z,25.00
2022-08-25T01:39:06.696Z,24.90
2022-08-25T01:41:45.009Z,24.90
2022-08-25T01:44:16.067Z,24.80
2022-08-25T01:46:43.329Z,24.80
2022-08-25T01:49:10.715Z,24.80
2022-08-25T01:51:44.686Z,24.80
2022-08-25T01:54:11.376Z,24.70
2022-08-25T01:56:38.763Z,24.70
2022-08-25T01:59:05.617Z,24.60
2022-08-25T02:01:32.550Z,24.60
2022-08-25T02:03:59.743Z,24.60
2022-08-25T02:06:29.842Z,24.60
2022-08-25T02:08:58.575Z,24.50
2022-08-25T02:11:25.676Z,24.50
2022-08-25T02:13:52.560Z,24.50
2022-08-25T02:16:31.080Z,24.50
2022-08-25T02:18:59.182Z,24.40
2022-08-25T02:21:26.318Z,24.40
2022-08-25T02:23:53.462Z,24.40
2022-08-25T02:26:20.190Z,24.30
2022-08-25T02:28:47.875Z,24.30
2022-08-25T02:31:15.373Z,24.30
2022-08-25T02:33:42.146Z,24.30
2022-08-25T02:36:08.999Z,24.20
2022-08-25T02:38:35.856Z,24.20
2022-08-25T02:41:09.266Z,24.20
2022-08-25T02:43:35.980Z,24.10
2022-08-25T02:46:02.836Z,24.10
2022-08-25T02:48:32.921Z,24.00
2022-08-25T02:51:00.949Z,24.00
2022-08-25T02:53:28.992Z,23.90
2022-08-25T02:55:55.719Z,23.90
2022-08-25T02:58:22.649Z,23.90
2022-08-25T03:00:49.709Z,23.90
2022-08-25T03:03:16.617Z,23.90
2022-08-25T03:05:43.516Z,23.80
2022-08-25T03:08:11.098Z,23.80
2022-08-25T03:10:37.925Z,23.70
2022-08-25T03:13:04.940Z,23.70
2022-08-25T03:15:31.671Z,23.70
2022-08-25T03:18:00.009Z,23.70
2022-08-25T03:20:27.961Z,23.60
2022-08-25T03:22:54.647Z,23.60
2022-08-25T03:25:40.182Z,23.60
2022-08-25T03:28:07.556Z,23.50
2022-08-25T03:30:34.711Z,23.50
2022-08-25T03:33:01.394Z,23.40
2022-08-25T03:35:28.115Z,23.40
2022-08-25T03:37:58.296Z,23.40
2022-08-25T03:40:25.077Z,23.20
2022-08-25T03:42:52.069Z,23.20
2022-08-25T03:45:19.024Z,23.20
2022-08-25T03:47:46.799Z,23.10
2022-08-25T03:50:13.852Z,23.10
2022-08-25T03:52:42.706Z,23.00
2022-08-25T03:55:11.375Z,22.90
2022-08-25T03:57:38.344Z,22.90
2022-08-25T04:00:06.451Z,22.90
2022-08-25T04:02:33.923Z,22.90
2022-08-25T04:05:01.117Z,22.90
2022-08-25T04:07:27.822Z,22.90
2022-08-25T04:09:55.082Z,22.80
2022-08-25T04:12:22.027Z,22.80
2022-08-25T04:14:50.006Z,22.80
2022-08-25T04:17:16.834Z,22.80
2022-08-25T04:19:43.661Z,22.80
2022-08-25T04:22:10.420Z,22.70
2022-08-25T04:24:37.154Z,22.70
2022-08-25T04:27:04.185Z,22.70
2022-08-25T04:29:30.906Z,22.70
2022-08-25T04:31:57.678Z,22.70
2022-08-25T04:34:30.507Z,22.70
2022-08-25T04:37:02.672Z,22.60
2022-08-25T04:39:29.974Z,22.70
2022-08-25T04:41:56.747Z,22.60
2022-08-25T04:44:23.575Z,22.60
2022-08-25T04:46:50.279Z,22.60
2022-08-25T04:49:17.000Z,22.60
2022-08-25T04:51:43.750Z,22.60
2022-08-25T04:54:12.646Z,22.60
2022-08-25T04:56:40.059Z,22.60
2022-08-25T04:59:08.420Z,22.60
2022-08-25T05:01:35.173Z,22.70
2022-08-25T05:04:03.291Z,22.60
2022-08-25T05:06:30.316Z,22.60
2022-08-25T05:08:57.884Z,22.60
2022-08-25T05:11:25.150Z,22.50
2022-08-25T05:13:52.938Z,22.50
2022-08-25T05:16:21.084Z,22.50
2022-08-25T05:18:48.142Z,22.50
2022-08-25T05:21:16.070Z,22.30
2022-08-25T05:23:43.185Z,22.20
2022-08-25T05:26:19.108Z,22.20
2022-08-25T05:28:46.860Z,22.30
2022-08-25T05:31:14.290Z,22.20
2022-08-25T05:33:41.788Z,22.20
2022-08-25T05:36:10.106Z,22.20
2022-08-25T05:38:37.837Z,22.20
2022-08-25T05:41:06.687Z,22.20
2022-08-25T05:43:33.474Z,22.30
2022-08-25T05:46:00.261Z,22.30
2022-08-25T05:48:27.184Z,22.30
2022-08-25T05:50:54.874Z,22.30
2022-08-25T05:53:22.890Z,22.30
2022-08-25T05:55:50.948Z,22.30
2022-08-25T05:58:17.719Z,22.30
2022-08-25T06:00:44.547Z,22.50
2022-08-25T06:03:11.659Z,22.40
2022-08-25T06:05:38.425Z,22.50
2022-08-25T06:08:05.291Z,22.70
2022-08-25T06:10:32.143Z,22.80
2022-08-25T06:12:59.000Z,22.90
2022-08-25T06:15:25.901Z,23.10
2022-08-25T06:17:54.192Z,23.10
2022-08-25T06:20:25.363Z,23.10
2022-08-25T06:22:52.907Z,23.20
2022-08-25T06:25:21.256Z,23.30
2022-08-25T06:27:48.032Z,23.40
2022-08-25T06:30:16.588Z,23.50
2022-08-25T06:32:43.931Z,23.60
2022-08-25T06:35:12.648Z,23.70
2022-08-25T06:37:39.941Z,23.70
2022-08-25T06:40:09.671Z,23.90
2022-08-25T06:42:36.420Z,24.00
2022-08-25T06:45:03.409Z,24.20
2022-08-25T06:47:30.120Z,24.30
2022-08-25T06:49:56.888Z,24.50
2022-08-25T06:52:29.280Z,24.60
2022-08-25T06:54:56.392Z,24.80
2022-08-25T06:57:23.211Z,25.00
2022-08-25T06:59:49.890Z,25.10
2022-08-25T07:02:21.898Z,25.30
2022-08-25T07:04:50.044Z,25.60
2022-08-25T07:07:17.499Z,25.60
2022-08-25T07:09:45.481Z,26.00
2022-08-25T07:12:13.360Z,26.10
2022-08-25T07:14:40.260Z,26.30
2022-08-25T07:20:01.613Z,26.70
2022-08-25T07:22:29.034Z,26.80
2022-08-25T07:25:00.319Z,27.00
2022-08-25T07:27:32.186Z,27.20
2022-08-25T07:32:43.114Z,27.40
2022-08-25T07:35:24.026Z,27.60
2022-08-25T07:37:54.524Z,27.80
2022-08-25T07:40:34.345Z,27.90
2022-08-25T07:43:10.478Z,28.10
2022-08-25T07:45:44.927Z,28.20
2022-08-25T07:48:18.360Z,28.40
2022-08-25T07:50:47.097Z,28.60
2022-08-25T07:53:15.583Z,28.70
2022-08-25T07:55:45.245Z,28.80
2022-08-25T07:58:14.551Z,28.90
2022-08-25T08:00:51.885Z,29.00
2022-08-25T08:03:42.125Z,29.20
2022-08-25T08:08:42.613Z,29.60
2022-08-25T08:11:20.058Z,29.80
2022-08-25T08:13:47.830Z,29.90
2022-08-25T08:16:19.115Z,30.00
2022-08-25T08:18:46.554Z,30.30
2022-08-25T08:21:19.893Z,30.40
2022-08-25T08:23:49.236Z,30.50
2022-08-25T08:26:16.858Z,30.70
2022-08-25T08:28:43.879Z,30.80
2022-08-25T08:31:10.897Z,31.00
2022-08-25T08:33:43.166Z,31.10
2022-08-25T08:36:13.613Z,31.20
2022-08-25T08:38:42.856Z,31.40
2022-08-25T08:41:28.745Z,31.50
2022-08-25T08:44:20.221Z,31.50
2022-08-25T08:47:08.945Z,31.70
2022-08-25T08:49:53.002Z,31.80
2022-08-25T08:52:23.606Z,31.90
2022-08-25T08:55:06.532Z,32.10
2022-08-25T08:57:38.107Z,32.20
2022-08-25T09:00:06.845Z,32.20
2022-08-25T09:02:38.950Z,32.30
2022-08-25T09:08:07.634Z,32.50
2022-08-25T09:10:42.655Z,32.60
2022-08-25T09:13:19.845Z,32.70
2022-08-25T09:16:20.644Z,32.70
2022-08-25T09:19:11.509Z,32.80
2022-08-25T09:22:25.428Z,32.90
2022-08-25T09:24:58.808Z,32.90
2022-08-25T09:27:44.947Z,32.90
2022-08-25T09:30:18.784Z,32.90
2022-08-25T09:32:53.544Z,32.80
2022-08-25T09:35:35.588Z,32.90
2022-08-25T09:38:06.044Z,32.90
2022-08-25T09:40:36.264Z,33.00
2022-08-25T09:46:23.351Z,33.00
2022-08-25T09:48:58.622Z,33.20
2022-08-25T09:51:27.964Z,33.00
2022-08-25T09:53:56.603Z,32.90
2022-08-25T09:56:30.118Z,33.00
2022-08-25T09:59:19.342Z,33.00
2022-08-25T10:01:52.107Z,32.90
2022-08-25T10:04:38.873Z,33.00
2022-08-25T10:07:21.513Z,33.10
2022-08-25T10:10:00.216Z,33.10
2022-08-25T10:12:42.462Z,33.20
2022-08-25T10:15:32.689Z,33.20
2022-08-25T10:18:18.714Z,33.20
2022-08-25T10:21:01.507Z,33.10
2022-08-25T10:23:30.835Z,33.20
2022-08-25T10:26:20.706Z,33.00
2022-08-25T10:29:00.322Z,33.00
2022-08-25T10:31:34.793Z,33.00
2022-08-25T10:34:16.378Z,33.10
2022-08-25T10:37:32.912Z,33.20
2022-08-25T10:40:11.110Z,33.10
2022-08-25T10:42:55.836Z,32.90
2022-08-25T10:45:42.066Z,33.00
2022-08-25T10:48:22.991Z,33.20
2022-08-25T10:51:25.264Z,33.20
2022-08-25T10:54:03.184Z,33.30
2022-08-25T10:56:43.753Z,33.40
2022-08-25T10:59:34.164Z,33.30
2022-08-25T11:02:10.969Z,33.20
2022-08-25T11:04:54.688Z,33.30
2022-08-25T11:07:43.804Z,33.40
2022-08-25T11:10:18.123Z,33.40
2022-08-25T11:12:54.775Z,33.50
2022-08-25T11:15:35.730Z,33.40
2022-08-25T11:18:14.652Z,33.30
2022-08-25T11:21:02.786Z,33.30
2022-08-25T11:23:39.506Z,33.30
2022-08-25T11:26:27.261Z,33.30
2022-08-25T11:29:12.927Z,33.40
2022-08-25T11:31:59.067Z,33.20
2022-08-25T11:34:40.093Z,33.10
2022-08-25T11:37:23.850Z,33.20
2022-08-25T11:40:02.510Z,33.20
2022-08-25T11:42:51.012Z,33.20
2022-08-25T11:45:40.506Z,33.20
2022-08-25T11:48:29.710Z,33.10
2022-08-25T11:51:09.501Z,33.10
2022-08-25T11:53:38.069Z,33.00
2022-08-25T11:56:16.007Z,33.00
2022-08-25T11:58:46.947Z,33.00
2022-08-25T12:01:46.025Z,33.10
2022-08-25T12:04:18.270Z,33.10
2022-08-25T12:07:17.129Z,33.00
2022-08-25T12:10:11.524Z,32.80
2022-08-25T12:12:45.743Z,32.80
2022-08-25T12:15:19.441Z,32.90
2022-08-25T12:18:09.600Z,32.90
2022-08-25T12:21:09.059Z,32.90
2022-08-25T12:23:52.821Z,32.90
2022-08-25T12:26:41.306Z,32.90
2022-08-25T12:29:31.695Z,32.90
2022-08-25T12:32:09.462Z,32.90
2022-08-25T12:34:43.300Z,32.90
2022-08-25T12:37:17.627Z,32.90
2022-08-25T12:39:50.834Z,32.90
2022-08-25T12:42:38.180Z,32.90
2022-08-25T12:45:40.934Z,32.90
2022-08-25T12:48:37.825Z,32.90
2022-08-25T12:51:07.893Z,32.90
2022-08-25T12:53:40.947Z,32.90
2022-08-25T12:56:07.968Z,32.80
2022-08-25T12:59:00.327Z,32.90
2022-08-25T13:01:40.016Z,32.90
2022-08-25T13:04:13.013Z,32.90
2022-08-25T13:07:06.582Z,32.90
2022-08-25T13:09:34.502Z,32.80
2022-08-25T13:12:14.587Z,32.90
2022-08-25T13:14:45.093Z,32.80
2022-08-25T13:17:24.846Z,32.90
2022-08-25T13:19:56.254Z,32.80
2022-08-25T13:22:24.761Z,32.80
2022-08-25T13:24:53.311Z,32.90
2022-08-25T13:27:22.754Z,32.90
2022-08-25T13:29:54.653Z,32.90
2022-08-25T13:32:32.468Z,32.80
2022-08-25T13:35:20.805Z,32.90
2022-08-25T13:37:48.752Z,32.90
2022-08-25T13:40:27.407Z,32.90
2022-08-25T13:42:58.492Z,32.90
2022-08-25T13:45:30.096Z,32.80
2022-08-25T13:47:59.102Z,32.70
2022-08-25T13:50:26.522Z,32.70
2022-08-25T13:52:54.718Z,32.70
2022-08-25T13:55:27.420Z,32.80
2022-08-25T13:57:54.910Z,32.70
2022-08-25T14:00:31.872Z,32.70
2022-08-25T14:03:00.755Z,32.60
2022-08-25T14:05:42.539Z,32.60
2022-08-25T14:08:30.166Z,32.60
2022-08-25T14:11:14.932Z,32.50
2022-08-25T14:13:45.496Z,32.60
2022-08-25T14:16:15.651Z,32.60
2022-08-25T14:18:50.830Z,32.40
2022-08-25T14:21:19.781Z,32.60
2022-08-25T14:23:46.577Z,32.60
2022-08-25T14:26:13.763Z,32.60
2022-08-25T14:28:41.181Z,32.60
2022-08-25T14:31:10.398Z,32.60
2022-08-25T14:33:42.703Z,32.50
2022-08-25T14:36:12.697Z,32.50
2022-08-25T14:38:45.672Z,32.50
2022-08-25T14:41:23.080Z,32.60
2022-08-25T14:43:50.704Z,32.70
2022-08-25T14:46:25.241Z,32.50
2022-08-25T14:48:55.848Z,32.50
2022-08-25T14:51:29.635Z,32.50
2022-08-25T14:53:58.906Z,32.50
2022-08-25T14:56:25.710Z,32.50
2022-08-25T14:58:56.234Z,32.50
2022-08-25T15:01:28.924Z,32.50
2022-08-25T15:04:23.623Z,32.50
2022-08-25T15:06:56.652Z,32.20
2022-08-25T15:09:25.027Z,32.50
2022-08-25T15:12:00.262Z,32.50
2022-08-25T15:14:28.562Z,32.50
2022-08-25T15:17:11.000Z,32.50
2022-08-25T15:19:38.619Z,32.50
2022-08-25T15:22:05.687Z,32.50
2022-08-25T15:24:37.799Z,32.50
2022-08-25T15:27:07.464Z,32.60
2022-08-25T15:29:39.133Z,32.50
2022-08-25T15:32:10.235Z,32.50
2022-08-25T15:34:37.605Z,32.40
2022-08-25T15:37:12.423Z,32.40
2022-08-25T15:39:44.640Z,32.40
2022-08-25T15:42:12.685Z,32.40
2022-08-25T15:44:39.840Z,32.30
2022-08-25T15:47:08.593Z,32.40
2022-08-25T15:49:39.869Z,32.30
2022-08-25T15:52:06.789Z,32.30
2022-08-25T15:54:33.782Z,32.30
2022-08-25T15:57:03.289Z,32.30
2022-08-25T15:59:41.053Z,32.30
2022-08-25T16:02:15.318Z,32.30
2022-08-25T16:04:42.373Z,32.20
2022-08-25T16:07:13.199Z,32.30
2022-08-25T16:09:40.728Z,32.20
2022-08-25T16:12:08.582Z,32.20
2022-08-25T16:14:36.975Z,32.20
2022-08-25T16:17:04.622Z,32.20
2022-08-25T16:19:32.657Z,32.20
2022-08-25T16:22:00.693Z,32.20
2022-08-25T16:24:29.322Z,32.20
2022-08-25T16:27:11.383Z,32.20
2022-08-25T16:29:39.730Z,32.20
2022-08-25T16:32:07.458Z,32.10
2022-08-25T16:34:35.570Z,32.10
2022-08-25T16:37:03.411Z,32.20
2022-08-25T16:39:31.510Z,32.10
2022-08-25T16:41:58.409Z,32.10
2022-08-25T16:44:25.819Z,32.10
2022-08-25T16:46:54.771Z,32.10
2022-08-25T16:49:24.341Z,32.10
2022-08-25T16:51:56.687Z,32.10
2022-08-25T16:57:33.192Z,32.10
2022-08-25T17:00:07.461Z,32.10
2022-08-25T17:05:19.899Z,32.00
2022-08-25T17:08:22.415Z,32.10
2022-08-25T17:11:04.146Z,32.00
2022-08-25T17:13:52.607Z,32.10
2022-08-25T17:19:08.739Z,32.00
2022-08-25T17:21:57.224Z,32.00
2022-08-25T17:24:40.703Z,31.90
2022-08-25T17:27:14.888Z,31.90
2022-08-25T17:29:49.258Z,31.90
2022-08-25T17:32:18.013Z,31.90
2022-08-25T17:34:53.230Z,31.90
2022-08-25T17:40:22.116Z,31.90
2022-08-25T17:42:59.548Z,31.90
2022-08-25T17:48:16.901Z,31.90
2022-08-25T17:51:04.037Z,31.90
2022-08-25T17:53:46.905Z,31.80
2022-08-25T17:56:21.662Z,31.80
2022-08-25T17:58:56.636Z,31.80
2022-08-25T18:01:33.453Z,31.80
2022-08-25T18:04:19.442Z,31.70
2022-08-25T18:09:38.355Z,31.70
2022-08-25T18:15:22.107Z,31.70
2022-08-25T18:18:02.219Z,31.60
2022-08-25T18:20:58.731Z,31.60
2022-08-25T18:23:36.861Z,31.60
2022-08-25T18:26:12.880Z,31.50
2022-08-25T18:31:30.214Z,31.50
2022-08-25T18:42:20.909Z,31.40
2022-08-25T18:44:48.046Z,31.40
2022-08-25T18:47:14.918Z,31.30
2022-08-25T18:49:41.657Z,31.30
2022-08-25T18:52:08.331Z,31.30
2022-08-25T18:54:36.111Z,31.30
2022-08-25T18:57:03.094Z,31.20
2022-08-25T18:59:29.892Z,31.10
2022-08-25T19:01:57.388Z,31.10
2022-08-25T19:04:31.285Z,31.00
2022-08-25T19:06:58.666Z,31.00
2022-08-25T19:09:25.405Z,30.90
2022-08-25T19:11:52.776Z,30.90
2022-08-25T19:14:21.646Z,31.10
2022-08-25T19:16:48.586Z,30.70
2022-08-25T19:19:15.331Z,30.70
2022-08-25T19:21:42.469Z,30.60
2022-08-25T19:24:09.988Z,30.50
2022-08-25T19:26:37.034Z,30.50
2022-08-25T19:29:05.624Z,30.40
2022-08-25T19:31:36.042Z,30.30
2022-08-25T19:34:03.551Z,30.20
2022-08-25T19:36:30.333Z,30.20
2022-08-25T19:38:58.830Z,30.10
2022-08-25T19:41:26.199Z,30.10
2022-08-25T19:43:56.695Z,30.00
2022-08-25T19:46:32.780Z,29.90
2022-08-25T19:49:08.371Z,29.90
2022-08-25T19:51:39.756Z,29.90
2022-08-25T19:54:09.145Z,29.80
2022-08-25T19:56:37.751Z,29.70
2022-08-25T19:59:10.941Z,29.70
2022-08-25T20:01:37.701Z,29.60
2022-08-25T20:04:07.147Z,29.60
2022-08-25T20:06:33.910Z,29.50
2022-08-25T20:09:00.806Z,29.50
2022-08-25T20:11:28.502Z,29.50
2022-08-25T20:13:56.085Z,29.40
2022-08-25T20:16:25.113Z,29.40
2022-08-25T20:18:52.326Z,29.30
2022-08-25T20:21:19.207Z,29.30
2022-08-25T20:24:04.454Z,29.20
2022-08-25T20:26:31.284Z,29.10
2022-08-25T20:28:58.087Z,29.00
2022-08-25T20:31:24.843Z,29.00
2022-08-25T20:33:51.623Z,28.90
2022-08-25T20:36:19.507Z,28.90
2022-08-25T20:38:46.297Z,28.80
2022-08-25T20:41:13.668Z,28.70
2022-08-25T20:43:41.177Z,28.80
2022-08-25T20:46:08.716Z,28.70
2022-08-25T20:48:35.732Z,28.70
2022-08-25T20:51:06.208Z,28.60
2022-08-25T20:53:36.097Z,28.60
2022-08-25T20:56:06.843Z,28.60
2022-08-25T20:58:35.982Z,28.50
2022-08-25T21:01:03.908Z,28.50
2022-08-25T21:03:31.791Z,28.50
2022-08-25T21:05:58.598Z,28.40
2022-08-25T21:08:25.545Z,28.40
2022-08-25T21:10:52.372Z,28.40
2022-08-25T21:13:19.070Z,28.30
2022-08-25T21:15:48.634Z,28.30
2022-08-25T21:18:15.413Z,28.20
2022-08-25T21:20:43.024Z,28.20
2022-08-25T21:23:09.711Z,28.10
2022-08-25T21:25:41.091Z,28.10
2022-08-25T21:28:08.091Z,28.10
2022-08-25T21:30:34.893Z,28.10
2022-08-25T21:33:02.166Z,28.00
2022-08-25T21:35:28.969Z,28.00
2022-08-25T21:37:55.950Z,28.00
2022-08-25T21:40:23.350Z,28.00
2022-08-25T21:42:50.848Z,27.90
2022-08-25T21:45:20.947Z,27.90
2022-08-25T21:47:48.509Z,27.90
2022-08-25T21:50:15.309Z,27.90
2022-08-25T21:52:42.223Z,27.90
2022-08-25T21:55:16.209Z,27.80
2022-08-25T21:57:43.846Z,27.80
2022-08-25T22:00:11.637Z,27.70
2022-08-25T22:02:38.577Z,27.70
2022-08-25T22:05:09.379Z,27.60
2022-08-25T22:07:41.612Z,27.50
2022-08-25T22:10:16.645Z,27.50
2022-08-25T22:12:44.807Z,27.40
2022-08-25T22:15:13.534Z,27.40
2022-08-25T22:17:40.571Z,27.40
2022-08-25T22:20:07.724Z,27.30
2022-08-25T22:22:34.437Z,27.30
2022-08-25T22:25:01.270Z,27.20
2022-08-25T22:27:28.660Z,27.20
2022-08-25T22:29:56.223Z,27.20
2022-08-25T22:32:23.129Z,27.10
2022-08-25T22:34:50.625Z,27.10
2022-08-25T22:37:18.029Z,27.10
2022-08-25T22:39:45.580Z,27.00
2022-08-25T22:42:12.512Z,27.00
2022-08-25T22:44:40.051Z,27.00
2022-08-25T22:47:06.969Z,26.90
2022-08-25T22:49:35.519Z,26.90
2022-08-25T22:52:02.517Z,26.90
2022-08-25T22:54:29.939Z,26.90
2022-08-25T22:56:56.693Z,26.80
2022-08-25T22:59:23.410Z,26.80
2022-08-25T23:01:52.439Z,26.80
2022-08-25T23:04:19.451Z,26.80
2022-08-25T23:06:46.174Z,26.80
2022-08-25T23:09:15.421Z,26.80
2022-08-25T23:11:42.244Z,26.70
2022-08-25T23:14:11.073Z,26.70
2022-08-25T23:16:38.756Z,26.70
2022-08-25T23:19:05.564Z,26.70
2022-08-25T23:21:52.491Z,26.60
2022-08-25T23:24:29.314Z,26.50
2022-08-25T23:26:57.770Z,26.50
2022-08-25T23:29:25.206Z,26.40
2022-08-25T23:31:52.219Z,26.40
2022-08-25T23:34:21.616Z,26.40
2022-08-25T23:36:49.139Z,26.40
2022-08-25T23:39:16.159Z,26.30
2022-08-25T23:41:42.925Z,26.30
2022-08-25T23:44:11.571Z,26.30
2022-08-25T23:46:39.510Z,26.30
2022-08-25T23:49:08.462Z,26.30
2022-08-25T23:51:38.285Z,26.30
2022-08-25T23:54:09.326Z,26.30
2022-08-25T23:56:42.288Z,26.40
2022-08-25T23:59:18.739Z,26.40
